Nearby METAR Reports



KADS - Dallas/Addison, Texas, USA
Distance from station: SSW 10mi, 16km
Updated: Thu, 20-Jun-2019 5:47pm CDT
Clear
Clear
 Wind from SSE
Wind: SSE 15 mph , 24 km/h, Gust: 24 mph , 39 km/h
Temperature: 95°F , 35°C
Heat Index: 107°F , 42°C
Dew Point: 75°F , 24°C
Humidity: 53%
Barometer: 29.73 inHg , 1006.8 hPa
Clouds: Clear
Visibility: 10 miles , 16 km
2019/06/20 22:47 KADS 202247Z 16013G21KT 10SM SKC 35/24 A2973
KTKI - Mckinney, Texas, USA
Distance from station: ENE 11mi, 18km
Updated: Thu, 20-Jun-2019 5:53pm CDT
Clear
Clear
 Wind from SSE
Wind: SSE 17 mph , 28 km/h
Temperature: 93°F , 34°C
Heat Index: 110°F , 43°C
Dew Point: 79°F , 26°C
Humidity: 63%
Barometer: 29.72 inHg , 1006.4 hPa
Clouds: Clear
Visibility: 10 miles , 16 km
2019/06/20 22:53 KTKI 202253Z 16015KT 10SM CLR 34/26 A2972 RMK AO2 SLP059 T03440256
 
KDAL - Dallas/Love Fld, Texas, USA
Distance from station: SSW 18mi, 30km
Updated: Thu, 20-Jun-2019 5:53pm CDT
Few Clouds
Few Clouds
 Wind from S
Wind: S 12 mph , 19 km/h, Gust: 17 mph , 28 km/h
Temperature: 97°F , 36°C
Heat Index: 110°F , 43°C
Dew Point: 75°F , 24°C
Humidity: 50%
Barometer: 29.72 inHg , 1006.4 hPa
Clouds: Few Clouds
Visibility: 10 miles , 16 km
Cloud details: Few Clouds 4000 ft
2019/06/20 22:53 KDAL 202253Z 18010G15KT 10SM FEW040 36/24 A2972 RMK AO2 SLP054 T03560244
KDFW - Dallas/Ft Worth, Texas, USA
Distance from station: SW 21mi, 34km
Updated: Thu, 20-Jun-2019 5:53pm CDT
Few Clouds
Few Clouds
 Wind from S
Wind: S 20 mph , 31 km/h, Gust: 24 mph , 39 km/h
Temperature: 95°F , 35°C
Heat Index: 107°F , 42°C
Dew Point: 75°F , 24°C
Humidity: 53%
Barometer: 29.70 inHg , 1005.8 hPa
Clouds: Few Clouds
Visibility: 10 miles , 16 km
Cloud details: Few Clouds 5000 ft
2019/06/20 22:53 KDFW 202253Z 17017G21KT 10SM FEW050 35/24 A2970 RMK AO2 SLP048 T03500244
 
KF46 - Rockwall, Texas, USA
Distance from station: ESE 22mi, 35km
Updated: Thu, 20-Jun-2019 6:15pm CDT
Partly cloudy
Partly cloudy
 Wind from S
Wind: S 15 mph , 24 km/h
Temperature: 93°F , 34°C
Heat Index: 110°F , 43°C
Dew Point: 79°F , 26°C
Humidity: 63%
Barometer: 29.74 inHg , 1007.1 hPa
Clouds: Partly cloudy
Visibility: 10 miles , 16 km
Cloud details: Partly cloudy 3900 ft
2019/06/20 23:15 KF46 202315Z AUTO 18013KT 10SM SCT039 34/26 A2974 RMK AO2 T03420256
KDTO - Denton, Texas, USA
Distance from station: WNW 27mi, 43km
Updated: Thu, 20-Jun-2019 5:53pm CDT
Clear
Clear
 Wind from S
Wind: S 16 mph , 26 km/h
Temperature: 97°F , 36°C
Heat Index: 110°F , 43°C
Dew Point: 75°F , 24°C
Humidity: 50%
Barometer: 29.71 inHg , 1006.1 hPa
Clouds: Clear
Visibility: 10 miles , 16 km
2019/06/20 22:53 KDTO 202253Z 17014KT 10SM CLR 36/24 A2971 RMK AO2 SLP050 T03560244
 
KHQZ - Mesquite, Texas, USA
Distance from station: SSE 28mi, 44km
Updated: Thu, 20-Jun-2019 5:50pm CDT
Few Clouds
Few Clouds
 Wind from SSE
Wind: SSE 17 mph , 28 km/h, Gust: 23 mph , 37 km/h
Temperature: 93°F , 34°C
Heat Index: 107°F , 42°C
Dew Point: 77°F , 25°C
Humidity: 59%
Barometer: 29.74 inHg , 1007.1 hPa
Clouds: Few Clouds
Visibility: 10 miles , 16 km
Cloud details: Few Clouds 4000 ft
2019/06/20 22:50 KHQZ 202250Z 15015G20KT 10SM FEW040 34/25 A2974
KRBD - Dallas/Redbird, Texas, USA
Distance from station: SSW 30mi, 48km
Updated: Thu, 20-Jun-2019 5:53pm CDT
Clear
Clear
 Wind from S
Wind: S 21 mph , 33 km/h, Gust: 28 mph , 44 km/h
Temperature: 93°F , 34°C
Heat Index: 105°F , 41°C
Dew Point: 75°F , 24°C
Humidity: 56%
Barometer: 29.72 inHg , 1006.4 hPa
Clouds: Clear
Visibility: 10 miles , 16 km
2019/06/20 22:53 KRBD 202253Z 18018G24KT 10SM CLR 34/24 A2972 RMK AO2 SLP055 T03390244
 
KGPM - Grand Prairie, Texas, USA
Distance from station: SSW 33mi, 53km
Updated: Thu, 20-Jun-2019 5:50pm CDT
Clear
Clear
 Wind from S
Wind: S 12 mph , 19 km/h, Gust: 18 mph , 30 km/h
Temperature: 97°F , 36°C
Heat Index: 108°F , 42°C
Dew Point: 73°F , 23°C
Humidity: 47%
Barometer: 29.74 inHg , 1007.1 hPa
Clouds: Clear
Visibility: 10 miles , 16 km
2019/06/20 22:50 KGPM 202250Z 18010G16KT 10SM SKC 36/23 A2974
KAFW - Ft Worth/Allianc, Texas, USA
Distance from station: WSW 34mi, 55km
Updated: Thu, 20-Jun-2019 5:53pm CDT
Few Clouds
Few Clouds
 Wind from SSE
Wind: SSE 18 mph , 30 km/h
Temperature: 97°F , 36°C
Heat Index: 113°F , 45°C
Dew Point: 77°F , 25°C
Humidity: 53%
Barometer: 29.70 inHg , 1005.8 hPa
Clouds: Few Clouds
Visibility: 10 miles , 16 km
Cloud details: Few Clouds 4600 ft
2019/06/20 22:53 KAFW 202253Z 16016KT 10SM FEW046 36/25 A2970 RMK AO2 SLP041 T03560250
 
KLNC - Lancaster, Texas, USA
Distance from station: S 36mi, 58km
Updated: Thu, 20-Jun-2019 6:15pm CDT
Clear
Clear
 Wind from S
Wind: S 13 mph , 20 km/h
Temperature: 93°F , 34°C
Heat Index: 107°F , 42°C
Dew Point: 77°F , 25°C
Humidity: 59%
Barometer: 29.74 inHg , 1007.1 hPa
Clouds: Clear
Visibility: 10 miles , 16 km
2019/06/20 23:15 KLNC 202315Z AUTO 17011KT 10SM CLR 34/25 A2974 RMK AO2 T03420252
KGKY - Arlington, Texas, USA
Distance from station: SSW 36mi, 59km
Updated: Thu, 20-Jun-2019 5:53pm CDT
Clear
Clear
 Wind from S
Wind: S 16 mph , 26 km/h, Gust: 23 mph , 37 km/h
Temperature: 95°F , 35°C
Heat Index: 107°F , 42°C
Dew Point: 75°F , 24°C
Humidity: 53%
Barometer: 29.72 inHg , 1006.4 hPa
Clouds: Clear
Visibility: 10 miles , 16 km
2019/06/20 22:53 KGKY 202253Z 17014G20KT 10SM CLR 35/24 A2972 RMK AO2 SLP053 T03500239
 
KTRL - Terrell, Texas, USA
Distance from station: SE 39mi, 63km
Updated: Thu, 20-Jun-2019 5:53pm CDT
Partly cloudy
Partly cloudy
 Wind from SSE
Wind: SSE 16 mph , 26 km/h, Gust: 22 mph , 35 km/h
Temperature: 93°F , 34°C
Heat Index: 110°F , 43°C
Dew Point: 79°F , 26°C
Humidity: 63%
Barometer: 29.75 inHg , 1007.5 hPa
Clouds: Partly cloudy
Visibility: 10 miles , 16 km
Cloud details: Partly cloudy 3700 ft
2019/06/20 22:53 KTRL 202253Z AUTO 16014G19KT 10SM SCT037 34/26 A2975 RMK AO2 SLP065 T03440261 PNO $
KGVT - Greenville/Major, Texas, USA
Distance from station: E 40mi, 64km
Updated: Thu, 20-Jun-2019 6:15pm CDT
Clear
Clear
 Wind from S
Wind: S 15 mph , 24 km/h, Gust: 21 mph , 33 km/h
Temperature: 95°F , 35°C
Heat Index: 110°F , 43°C
Dew Point: 77°F , 25°C
Humidity: 56%
Barometer: 29.75 inHg , 1007.5 hPa
Clouds: Clear
Visibility: 10 miles , 16 km
2019/06/20 23:15 KGVT 202315Z AUTO 18013G18KT 10SM CLR 35/25 A2975 RMK AO2
 
KFTW - Fort Worth, Texas, USA
Distance from station: WSW 40mi, 65km
Updated: Thu, 20-Jun-2019 5:53pm CDT
Clear
Clear
 Wind from SSE
Wind: SSE 18 mph , 30 km/h
Temperature: 95°F , 35°C
Heat Index: 110°F , 43°C
Dew Point: 77°F , 25°C
Humidity: 56%
Barometer: 29.70 inHg , 1005.8 hPa
Clouds: Clear
Visibility: 10 miles , 16 km
2019/06/20 22:53 KFTW 202253Z 16016KT 10SM CLR 35/25 A2970 RMK AO2 SLP047 T03500250
KGYI - Sherman/Denison, Texas, USA
Distance from station: N 43mi, 69km
Updated: Thu, 20-Jun-2019 5:50pm CDT
Clear
Clear
 Wind from SSE
Wind: SSE 14 mph , 22 km/h
Temperature: 95°F , 35°C
Heat Index: 110°F , 43°C
Dew Point: 77°F , 25°C
Humidity: 56%
Barometer: 29.73 inHg , 1006.8 hPa
Clouds: Clear
Visibility: 10 miles , 16 km
2019/06/20 22:50 KGYI 202250Z 15012KT 10SM CLR 35/25 A2973
 
KNFW - Fort Worth Nas, Texas, USA
Distance from station: WSW 45mi, 73km
Updated: Thu, 20-Jun-2019 5:52pm CDT
Few Clouds
Few Clouds
 Wind from SSE
Wind: SSE 20 mph , 31 km/h
Temperature: 99°F , 37°C
Heat Index: 113°F , 45°C
Dew Point: 75°F , 24°C
Humidity: 47%
Barometer: 29.71 inHg , 1006.1 hPa
Clouds: Few Clouds
Visibility: 10 miles , 16 km
Cloud details: Few Clouds 5000 ft
2019/06/20 22:52 KNFW 202252Z 16017KT 10SM FEW050 37/24 A2971 RMK AO2 SLP046 T03670239 VISNO N $
KGLE - Gainesville, Texas, USA
Distance from station: NW 46mi, 74km
Updated: Thu, 20-Jun-2019 6:15pm CDT
Clear
Clear
 Wind from calm
Wind: Calm
Temperature: 93°F , 34°C
Heat Index: 105°F , 41°C
Dew Point: 75°F , 24°C
Humidity: 56%
Barometer: 29.73 inHg , 1006.8 hPa
Clouds: Clear
Visibility: 10 miles , 16 km
2019/06/20 23:15 KGLE 202315Z AUTO 00000KT 10SM CLR 34/24 A2973 RMK AO2 T03390243 PWINO
 
KJWY - Midlothian/Wax, Texas, USA
Distance from station: SSW 46mi, 74km
Updated: Thu, 20-Jun-2019 6:15pm CDT
Clear
Clear
 Wind from S
Wind: S 15 mph , 24 km/h, Gust: 21 mph , 33 km/h
Temperature: 93°F , 34°C
Heat Index: 107°F , 42°C
Dew Point: 77°F , 25°C
Humidity: 59%
Barometer: 29.75 inHg , 1007.5 hPa
Clouds: Clear
Visibility: 10 miles , 16 km
2019/06/20 23:15 KJWY 202315Z AUTO 17013G18KT 10SM CLR 34/25 A2975 RMK AO2 T03430251
KFWS - Fort Worth/88d, Texas, USA
Distance from station: SW 49mi, 79km
Updated: Thu, 20-Jun-2019 5:51pm CDT
Clear
Clear
 Wind from SSE
Wind: SSE 14 mph , 22 km/h, Gust: 21 mph , 33 km/h
Temperature: 97°F , 36°C
Heat Index: 110°F , 43°C
Dew Point: 75°F , 24°C
Humidity: 50%
Barometer: 29.74 inHg , 1007.1 hPa
Clouds: Clear
Visibility: 7 miles , 11 km
2019/06/20 22:51 KFWS 202251Z 15012G18KT 7SM CLR 36/24 A2974